首页
METAR-TAF:

METAR-TAF

机场 :

Faßberg, 德国

纬度: 52-55N, 经度: 010-11E, 海拔: 75米

当前天气观测

该预报发布于24分钟前的15:00 UTC
风速9节,风向西
温度 5°C
湿度 75%
气压 1021 hPa
能见度10公里或以上
多云层高于2000英尺

METAR: ETHS 181500Z 26009KT 9999 BKN020 05/01 Q1021 WHT

时间: 16:24 (15:24 UTC)

预报

该预报发布于28小时和29分钟前的10:55 UTC
预报有效从17日的 09点(UTC)到 17日的 18点(UTC)
风速8节,风向
能见度10公里或以上
少量云层高于26000英尺
成为
从 17日的 17点(UTC)到 17日的 18点(UTC)
风速6节,风向南转西南
能見度: 1120
多云层高于3000英尺

TAF: ETHS 171055Z 1709/1718 18008KT 9999 NSW FEW260 BECMG 1717/1718 21006KT 9999 NSW BKN030 CANCEL 1120

超过4000个机场的气象观测和天气预报(METAR&TAF报告)。

可查询的气象台以黄色和红色小点在地图上表示。

将鼠标移到小点上方,可查看气象台名称。

然后点击查看天气观测和预报。

如需切换地图:点击带黑十字的绿色按钮放大地图;点击带横线的绿色按钮缩小地图;或者点击绿色箭头查看邻近地区的地图。


METAR-TAF: